Grass Range, Montana
Current Conditions -  °F | °C
As of 8:00 AM on Monday 22 Dec 2014 (Local Time) from KMVH Reporting Station
Overcast Overcast  
Wind Chill: 21°   Ceiling: 9000
Heat Index: 32°   Visibility: 10mi
Dew Point: 21°   Wind: 16mph
Humidity: 64%   Direction: 300°WNW
Pressure: 29.73"   Gusts: 25mph
Location:  47.03°N, 108.8°W
Report Text: KMVH 221500Z AUTO 30014G22KT 10SM FEW060 OVC090 M00/M06 A2973 RMK A01
Loading
Personal Weather Stations






























Interactive Weather Map New forecast layout! Learn more

10-Day Weather Forecast

Advertisements
Track Severe Weather on mobile